createdAt,value
2022-09-13T00:02:15.928Z,19.64
2022-09-13T00:04:43.603Z,19.63
2022-09-13T00:07:11.265Z,19.61
2022-09-13T00:09:38.921Z,19.60
2022-09-13T00:12:06.773Z,19.60
2022-09-13T00:14:34.466Z,19.58
2022-09-13T00:17:03.456Z,19.57
2022-09-13T00:19:31.040Z,19.53
2022-09-13T00:21:58.679Z,19.48
2022-09-13T00:24:26.287Z,19.46
2022-09-13T00:26:53.894Z,19.45
2022-09-13T00:29:21.567Z,19.44
2022-09-13T00:31:49.375Z,19.43
2022-09-13T00:34:18.411Z,19.40
2022-09-13T00:36:46.258Z,19.36
2022-09-13T00:39:13.965Z,19.34
2022-09-13T00:41:41.799Z,19.29
2022-09-13T00:44:42.645Z,19.27
2022-09-13T00:47:12.718Z,19.24
2022-09-13T00:49:43.058Z,19.21
2022-09-13T00:52:15.210Z,19.19
2022-09-13T00:54:46.994Z,19.17
2022-09-13T00:57:17.589Z,19.14
2022-09-13T00:59:52.174Z,19.12
2022-09-13T01:02:20.490Z,19.09
2022-09-13T01:04:50.078Z,19.06
2022-09-13T01:07:19.150Z,19.07
2022-09-13T01:09:50.230Z,19.06
2022-09-13T01:12:31.862Z,19.05
2022-09-13T01:15:01.558Z,19.07
2022-09-13T01:17:31.153Z,19.03
2022-09-13T01:20:01.290Z,19.00
2022-09-13T01:23:19.757Z,18.95
2022-09-13T01:26:18.529Z,18.94
2022-09-13T01:29:16.252Z,18.91
2022-09-13T01:31:53.821Z,18.87
2022-09-13T01:34:33.812Z,18.85
2022-09-13T01:37:38.388Z,18.86
2022-09-13T01:40:17.490Z,18.85
2022-09-13T01:43:05.417Z,18.80
2022-09-13T01:45:45.146Z,18.80
2022-09-13T01:48:20.451Z,18.78
2022-09-13T01:50:55.641Z,18.83
2022-09-13T01:53:31.706Z,18.84
2022-09-13T01:56:05.485Z,18.87
2022-09-13T01:58:41.473Z,18.89
2022-09-13T02:01:15.255Z,18.89
2022-09-13T02:03:49.684Z,18.90
2022-09-13T02:06:22.158Z,18.95
2022-09-13T02:08:51.017Z,19.00
2022-09-13T02:11:20.876Z,19.04
2022-09-13T02:13:53.053Z,19.14
2022-09-13T02:16:28.673Z,19.18
2022-09-13T02:19:00.570Z,19.26
2022-09-13T02:21:31.071Z,19.32
2022-09-13T02:24:03.161Z,19.38
2022-09-13T02:26:32.683Z,19.42
2022-09-13T02:29:06.716Z,19.45
2022-09-13T02:31:38.770Z,19.47
2022-09-13T02:34:13.699Z,19.47
2022-09-13T02:36:44.003Z,19.45
2022-09-13T02:39:15.927Z,19.41
2022-09-13T02:41:50.196Z,19.38
2022-09-13T02:44:26.525Z,19.34
2022-09-13T02:47:05.519Z,19.34
2022-09-13T02:49:45.891Z,19.31
2022-09-13T02:52:20.951Z,19.29
2022-09-13T02:54:55.650Z,19.29
2022-09-13T02:57:32.238Z,19.28
2022-09-13T03:00:00.449Z,19.27
2022-09-13T03:02:32.933Z,19.24
2022-09-13T03:05:02.712Z,19.28
2022-09-13T03:07:30.971Z,19.28
2022-09-13T03:10:05.526Z,19.28
2022-09-13T03:13:04.687Z,19.27
2022-09-13T03:15:46.436Z,19.29
2022-09-13T03:18:30.892Z,19.27
2022-09-13T03:21:08.940Z,19.29
2022-09-13T03:23:47.088Z,19.29
2022-09-13T03:26:28.001Z,19.28
2022-09-13T03:29:11.258Z,19.32
2022-09-13T03:31:49.698Z,19.35
2022-09-13T03:34:25.249Z,19.39
2022-09-13T03:36:59.598Z,19.42
2022-09-13T03:39:35.830Z,19.42
2022-09-13T03:42:08.401Z,19.43
2022-09-13T03:44:37.924Z,19.42
2022-09-13T03:47:07.497Z,19.39
2022-09-13T03:49:38.553Z,19.38
2022-09-13T03:52:08.455Z,19.36
2022-09-13T03:54:39.239Z,19.33
2022-09-13T03:57:11.321Z,19.31
2022-09-13T03:59:40.645Z,19.27
2022-09-13T04:02:11.967Z,19.24
2022-09-13T04:04:40.760Z,19.19
2022-09-13T04:07:10.993Z,19.14
2022-09-13T04:09:38.670Z,19.12
2022-09-13T04:12:07.240Z,19.11
2022-09-13T04:14:34.887Z,19.11
2022-09-13T04:17:02.821Z,19.10
2022-09-13T04:19:31.406Z,19.09
2022-09-13T04:21:59.219Z,19.08
2022-09-13T04:24:29.975Z,19.06
2022-09-13T04:26:58.099Z,19.03
2022-09-13T04:29:27.341Z,19.00
2022-09-13T04:31:56.137Z,18.97
2022-09-13T04:34:24.576Z,18.97
2022-09-13T04:36:54.590Z,18.98
2022-09-13T04:39:23.702Z,18.98
2022-09-13T04:41:54.764Z,18.98
2022-09-13T04:44:24.386Z,18.98
2022-09-13T04:46:52.586Z,18.95
2022-09-13T04:49:21.855Z,18.94
2022-09-13T04:51:49.603Z,18.92
2022-09-13T04:54:17.610Z,18.90
2022-09-13T04:56:45.693Z,18.88
2022-09-13T04:59:15.311Z,18.88
2022-09-13T05:01:43.245Z,18.88
2022-09-13T05:04:11.623Z,18.89
2022-09-13T05:06:39.451Z,18.88
2022-09-13T05:09:07.279Z,18.89
2022-09-13T05:11:34.980Z,18.88
2022-09-13T05:14:02.704Z,18.88
2022-09-13T05:16:33.585Z,18.84
2022-09-13T05:19:01.530Z,18.83
2022-09-13T05:21:30.191Z,18.83
2022-09-13T05:23:58.608Z,18.83
2022-09-13T05:26:29.328Z,18.86
2022-09-13T05:28:56.954Z,18.85
2022-09-13T05:31:26.243Z,18.89
2022-09-13T05:33:58.763Z,18.90
2022-09-13T05:36:27.028Z,18.91
2022-09-13T05:39:06.871Z,18.90
2022-09-13T05:41:42.811Z,18.94
2022-09-13T05:44:13.311Z,18.97
2022-09-13T05:46:42.175Z,19.01
2022-09-13T05:49:13.636Z,19.02
2022-09-13T05:51:41.587Z,19.05
2022-09-13T05:54:09.541Z,19.07
2022-09-13T05:56:37.338Z,19.11
2022-09-13T05:59:05.006Z,19.14
2022-09-13T06:01:32.823Z,19.15
2022-09-13T06:04:01.148Z,19.21
2022-09-13T06:06:30.188Z,19.23
2022-09-13T06:08:58.717Z,19.25
2022-09-13T06:11:27.308Z,19.26
2022-09-13T06:13:54.985Z,19.27
2022-09-13T06:16:22.881Z,19.29
2022-09-13T06:18:50.877Z,19.31
2022-09-13T06:21:20.534Z,19.31
2022-09-13T06:23:51.818Z,19.31
2022-09-13T06:26:21.559Z,19.34
2022-09-13T06:28:50.498Z,19.37
2022-09-13T06:31:20.327Z,19.37
2022-09-13T06:33:48.224Z,19.42
2022-09-13T06:36:18.137Z,19.46
2022-09-13T06:38:46.743Z,19.50
2022-09-13T06:41:18.624Z,19.57
2022-09-13T06:43:46.462Z,19.64
2022-09-13T06:46:15.836Z,19.70
2022-09-13T06:48:45.184Z,19.75
2022-09-13T06:51:14.524Z,19.80
2022-09-13T06:53:43.030Z,19.85
2022-09-13T06:56:13.109Z,19.93
2022-09-13T06:58:44.401Z,20.01
2022-09-13T07:01:14.871Z,20.04
2022-09-13T07:03:45.231Z,20.13
2022-09-13T07:06:22.593Z,20.15
2022-09-13T07:08:52.154Z,20.18
2022-09-13T07:11:22.577Z,20.23
2022-09-13T07:13:53.269Z,20.29
2022-09-13T07:16:22.605Z,20.33
2022-09-13T07:18:52.521Z,20.34
2022-09-13T07:21:21.063Z,20.42
2022-09-13T07:23:49.653Z,20.52
2022-09-13T07:26:17.370Z,20.64
2022-09-13T07:28:46.884Z,20.73
2022-09-13T07:31:18.382Z,20.81
2022-09-13T07:33:46.348Z,20.82
2022-09-13T07:36:14.982Z,20.80
2022-09-13T07:38:45.271Z,20.75
2022-09-13T07:41:14.859Z,20.70
2022-09-13T07:43:42.810Z,20.69
2022-09-13T07:46:12.335Z,20.71
2022-09-13T07:48:43.887Z,20.75
2022-09-13T07:51:13.633Z,20.82
2022-09-13T07:53:43.040Z,20.87
2022-09-13T07:56:12.850Z,20.86
2022-09-13T07:58:42.810Z,20.92
2022-09-13T08:01:14.227Z,21.06
2022-09-13T08:03:43.776Z,21.19
2022-09-13T08:06:12.022Z,21.30
2022-09-13T08:08:39.649Z,21.41
2022-09-13T08:11:08.064Z,21.47
2022-09-13T08:13:35.727Z,21.53
2022-09-13T08:16:04.864Z,21.57
2022-09-13T08:18:33.480Z,21.60
2022-09-13T08:21:03.043Z,21.62
2022-09-13T08:23:31.201Z,21.62
2022-09-13T08:26:02.807Z,21.62
2022-09-13T08:28:32.241Z,21.60
2022-09-13T08:31:04.991Z,21.60
2022-09-13T08:33:33.418Z,21.63
2022-09-13T08:36:03.390Z,21.67
2022-09-13T08:38:31.570Z,21.73
2022-09-13T08:41:01.324Z,21.81
2022-09-13T08:43:45.387Z,21.90
2022-09-13T08:46:22.919Z,21.99
2022-09-13T08:48:54.553Z,22.05
2022-09-13T08:51:33.010Z,22.09
2022-09-13T08:54:03.009Z,22.11
2022-09-13T08:56:39.555Z,22.17
2022-09-13T08:59:28.184Z,22.23
2022-09-13T09:02:11.075Z,22.25
2022-09-13T09:04:46.322Z,22.33
2022-09-13T09:07:20.011Z,22.39
2022-09-13T09:09:53.207Z,22.42
2022-09-13T09:12:29.056Z,22.39
2022-09-13T09:15:03.223Z,22.48
2022-09-13T09:17:42.940Z,22.50
2022-09-13T09:20:23.829Z,22.55
2022-09-13T09:22:55.219Z,22.52
2022-09-13T09:25:26.148Z,22.50
2022-09-13T09:27:54.715Z,22.56
2022-09-13T09:30:22.544Z,22.72
2022-09-13T09:33:20.610Z,22.79
2022-09-13T09:35:58.748Z,22.84
2022-09-13T09:38:42.726Z,22.91
2022-09-13T09:41:22.734Z,22.75
2022-09-13T09:43:55.630Z,22.70
2022-09-13T09:46:27.191Z,22.86
2022-09-13T09:48:57.886Z,23.05
2022-09-13T09:51:29.086Z,23.17
2022-09-13T09:54:05.829Z,23.30
2022-09-13T09:56:36.301Z,23.44
2022-09-13T09:59:04.678Z,23.54
2022-09-13T10:01:34.018Z,23.62
2022-09-13T10:04:08.611Z,23.59
2022-09-13T10:06:38.102Z,23.70
2022-09-13T10:09:16.543Z,23.80
2022-09-13T10:11:47.592Z,23.93
2022-09-13T10:14:36.988Z,24.01
2022-09-13T10:17:07.693Z,23.96
2022-09-13T10:19:36.349Z,24.01
2022-09-13T10:22:05.955Z,23.98
2022-09-13T10:24:35.015Z,23.97
2022-09-13T10:27:04.213Z,23.97
2022-09-13T10:29:34.014Z,24.11
2022-09-13T10:32:12.911Z,24.02
2022-09-13T10:34:46.939Z,24.14
2022-09-13T10:37:19.893Z,24.19
2022-09-13T10:39:57.267Z,24.31
2022-09-13T10:42:28.006Z,24.38
2022-09-13T10:44:58.154Z,24.38
2022-09-13T10:47:28.868Z,24.37
2022-09-13T10:49:59.326Z,24.48
2022-09-13T10:52:33.485Z,24.45
2022-09-13T10:55:29.396Z,24.45
2022-09-13T10:58:14.566Z,24.52
2022-09-13T11:00:55.973Z,24.60
2022-09-13T11:03:39.552Z,24.70
2022-09-13T11:06:17.027Z,24.80
2022-09-13T11:08:53.590Z,24.79
2022-09-13T11:11:30.710Z,24.80
2022-09-13T11:14:17.616Z,24.64
2022-09-13T11:17:00.108Z,24.66
2022-09-13T11:20:21.314Z,24.86
2022-09-13T11:23:05.262Z,25.04
2022-09-13T11:25:53.805Z,25.16
2022-09-13T11:28:29.498Z,25.16
2022-09-13T11:31:15.232Z,25.10
2022-09-13T11:33:58.721Z,25.12
2022-09-13T11:36:48.362Z,25.22
2022-09-13T11:39:29.133Z,25.33
2022-09-13T11:42:06.691Z,25.47
2022-09-13T11:45:10.546Z,25.59
2022-09-13T11:47:49.921Z,25.64
2022-09-13T11:50:27.281Z,25.67
2022-09-13T11:53:12.116Z,25.63
2022-09-13T11:55:45.538Z,25.49
2022-09-13T11:58:17.397Z,25.50
2022-09-13T12:00:50.989Z,25.44
2022-09-13T12:03:26.152Z,25.25
2022-09-13T12:05:57.853Z,25.38
2022-09-13T12:08:30.575Z,25.32
2022-09-13T12:11:03.686Z,25.39
2022-09-13T12:13:33.787Z,25.46
2022-09-13T12:16:06.740Z,25.43
2022-09-13T12:18:38.830Z,25.62
2022-09-13T12:21:10.251Z,25.77
2022-09-13T12:23:43.621Z,25.80
2022-09-13T12:26:16.906Z,25.68
2022-09-13T12:28:49.383Z,25.70
2022-09-13T12:31:23.007Z,25.85
2022-09-13T12:33:50.987Z,25.96
2022-09-13T12:36:54.865Z,25.87
2022-09-13T12:39:46.063Z,25.78
2022-09-13T12:42:41.617Z,25.83
2022-09-13T12:45:30.075Z,25.67
2022-09-13T12:48:23.215Z,25.58
2022-09-13T12:51:08.298Z,25.55
2022-09-13T12:53:53.702Z,25.38
2022-09-13T12:56:36.867Z,25.42
2022-09-13T12:59:20.041Z,25.42
2022-09-13T13:01:50.236Z,25.54
2022-09-13T13:04:23.206Z,25.70
2022-09-13T13:06:54.709Z,25.79
2022-09-13T13:09:29.674Z,25.93
2022-09-13T13:11:59.668Z,26.05
2022-09-13T13:14:30.823Z,26.18
2022-09-13T13:17:31.956Z,26.28
2022-09-13T13:20:01.123Z,26.40
2022-09-13T13:22:51.304Z,26.47
2022-09-13T13:25:33.394Z,26.50
2022-09-13T13:28:01.200Z,26.51
2022-09-13T13:30:51.555Z,26.57
2022-09-13T13:33:27.083Z,26.63
2022-09-13T13:35:56.645Z,26.69
2022-09-13T13:38:51.203Z,26.66
2022-09-13T13:41:39.767Z,26.71
2022-09-13T13:44:44.647Z,26.40
2022-09-13T13:47:54.799Z,26.48
2022-09-13T13:50:22.590Z,26.36
2022-09-13T13:53:03.178Z,26.11
2022-09-13T13:55:44.115Z,25.97
2022-09-13T13:58:25.725Z,26.08
2022-09-13T14:00:55.978Z,26.27
2022-09-13T14:03:29.722Z,26.45
2022-09-13T14:06:08.289Z,26.46
2022-09-13T14:08:47.033Z,26.44
2022-09-13T14:11:26.141Z,26.44
2022-09-13T14:14:09.329Z,26.39
2022-09-13T14:16:58.239Z,26.27
2022-09-13T14:19:31.238Z,26.34
2022-09-13T14:22:15.733Z,26.21
2022-09-13T14:24:48.653Z,26.13
2022-09-13T14:27:20.278Z,26.12
2022-09-13T14:29:50.090Z,26.15
2022-09-13T14:32:22.025Z,26.07
2022-09-13T14:34:56.225Z,26.10
2022-09-13T14:37:28.410Z,26.14
2022-09-13T14:39:59.500Z,26.17
2022-09-13T14:42:27.989Z,25.98
2022-09-13T14:44:56.006Z,26.05
2022-09-13T14:47:31.127Z,26.06
2022-09-13T14:50:04.766Z,26.05
2022-09-13T14:52:37.250Z,26.01
2022-09-13T14:55:14.120Z,26.03
2022-09-13T14:57:47.774Z,26.10
2022-09-13T15:00:19.442Z,26.10
2022-09-13T15:02:51.026Z,25.97
2022-09-13T15:05:20.982Z,26.05
2022-09-13T15:07:48.769Z,25.99
2022-09-13T15:10:26.836Z,26.01
2022-09-13T15:12:57.230Z,26.04
2022-09-13T15:15:37.514Z,26.13
2022-09-13T15:18:07.669Z,26.03
2022-09-13T15:20:51.618Z,25.87
2022-09-13T15:23:22.182Z,25.83
2022-09-13T15:25:54.899Z,25.69
2022-09-13T15:28:26.358Z,25.58
2022-09-13T15:30:54.562Z,25.58
2022-09-13T15:33:28.826Z,25.42
2022-09-13T15:36:30.987Z,25.37
2022-09-13T15:39:05.026Z,25.29
2022-09-13T15:41:36.038Z,25.28
2022-09-13T15:44:05.882Z,25.22
2022-09-13T15:46:35.858Z,25.28
2022-09-13T15:49:06.832Z,25.25
2022-09-13T15:51:39.068Z,25.26
2022-09-13T15:54:13.004Z,25.25
2022-09-13T15:56:44.410Z,25.14
2022-09-13T15:59:14.376Z,25.13
2022-09-13T16:01:42.457Z,25.14
2022-09-13T16:04:10.825Z,25.07
2022-09-13T16:06:39.054Z,25.04
2022-09-13T16:09:17.216Z,25.00
2022-09-13T16:11:46.518Z,24.93
2022-09-13T16:14:14.216Z,24.87
2022-09-13T16:16:41.954Z,24.80
2022-09-13T16:19:15.755Z,24.83
2022-09-13T16:21:43.507Z,24.80
2022-09-13T16:24:11.367Z,24.79
2022-09-13T16:26:39.538Z,24.82
2022-09-13T16:29:08.575Z,24.77
2022-09-13T16:31:36.607Z,24.80
2022-09-13T16:34:05.217Z,24.81
2022-09-13T16:36:34.102Z,24.80
2022-09-13T16:39:02.483Z,24.59
2022-09-13T16:41:30.283Z,24.51
2022-09-13T16:43:58.393Z,24.56
2022-09-13T16:46:28.510Z,24.58
2022-09-13T16:48:57.311Z,24.48
2022-09-13T16:51:25.626Z,24.44
2022-09-13T16:53:54.456Z,24.48
2022-09-13T16:56:23.787Z,24.52
2022-09-13T16:58:52.579Z,24.54
2022-09-13T17:01:23.613Z,24.50
2022-09-13T17:03:54.952Z,24.49
2022-09-13T17:06:24.247Z,24.48
2022-09-13T17:08:53.935Z,24.48
2022-09-13T17:11:23.726Z,24.39
2022-09-13T17:13:51.958Z,24.40
2022-09-13T17:16:28.542Z,24.40
2022-09-13T17:18:58.967Z,24.34
2022-09-13T17:21:28.183Z,24.24
2022-09-13T17:23:56.139Z,24.19
2022-09-13T17:26:24.292Z,24.22
2022-09-13T17:28:52.564Z,24.21
2022-09-13T17:31:20.602Z,24.18
2022-09-13T17:33:48.429Z,24.16
2022-09-13T17:36:17.856Z,24.10
2022-09-13T17:38:45.655Z,24.01
2022-09-13T17:41:15.409Z,24.01
2022-09-13T17:43:44.375Z,23.99
2022-09-13T17:46:13.990Z,23.99
2022-09-13T17:48:42.447Z,23.97
2022-09-13T17:51:13.742Z,23.91
2022-09-13T17:53:45.303Z,23.84
2022-09-13T17:56:13.536Z,23.75
2022-09-13T17:58:41.147Z,23.66
2022-09-13T18:01:10.844Z,23.64
2022-09-13T18:03:39.243Z,23.59
2022-09-13T18:06:09.084Z,23.55
2022-09-13T18:08:38.677Z,23.55
2022-09-13T18:11:13.972Z,23.55
2022-09-13T18:13:42.826Z,23.52
2022-09-13T18:16:17.168Z,23.49
2022-09-13T18:18:48.380Z,23.47
2022-09-13T18:21:18.568Z,23.41
2022-09-13T18:23:47.226Z,23.40
2022-09-13T18:26:18.480Z,23.36
2022-09-13T18:28:46.832Z,23.33
2022-09-13T18:31:16.368Z,23.31
2022-09-13T18:33:44.791Z,23.23
2022-09-13T18:36:14.250Z,23.21
2022-09-13T18:38:43.776Z,23.20
2022-09-13T18:41:13.592Z,23.14
2022-09-13T18:43:44.371Z,23.13
2022-09-13T18:46:13.805Z,23.11
2022-09-13T18:48:44.076Z,23.09
2022-09-13T18:51:13.627Z,23.08
2022-09-13T18:53:41.564Z,23.00
2022-09-13T18:56:11.263Z,22.95
2022-09-13T18:58:40.744Z,22.87
2022-09-13T19:01:12.542Z,22.82
2022-09-13T19:03:41.484Z,22.79
2022-09-13T19:06:13.621Z,22.68
2022-09-13T19:08:41.888Z,22.64
2022-09-13T19:11:29.116Z,22.57
2022-09-13T19:13:58.189Z,22.48
2022-09-13T19:16:27.445Z,22.43
2022-09-13T19:18:56.788Z,22.44
2022-09-13T19:21:27.352Z,22.37
2022-09-13T19:24:00.063Z,22.25
2022-09-13T19:26:31.857Z,22.32
2022-09-13T19:29:04.434Z,22.29
2022-09-13T19:31:35.243Z,22.24
2022-09-13T19:34:03.778Z,22.17
2022-09-13T19:36:34.266Z,22.02
2022-09-13T19:39:02.547Z,22.02
2022-09-13T19:41:31.215Z,22.03
2022-09-13T19:44:00.747Z,21.94
2022-09-13T19:46:31.591Z,21.90
2022-09-13T19:49:02.257Z,21.96
2022-09-13T19:51:33.073Z,21.90
2022-09-13T19:54:02.129Z,21.89
2022-09-13T19:56:32.595Z,21.82
2022-09-13T19:59:01.145Z,21.80
2022-09-13T20:01:34.227Z,21.81
2022-09-13T20:04:06.229Z,21.86
2022-09-13T20:06:36.258Z,21.79
2022-09-13T20:09:04.984Z,21.78
2022-09-13T20:11:34.594Z,21.69
2022-09-13T20:14:04.011Z,21.45
2022-09-13T20:16:33.987Z,21.43
2022-09-13T20:19:13.742Z,21.42
2022-09-13T20:21:51.841Z,21.39
2022-09-13T20:24:20.131Z,21.32
2022-09-13T20:26:49.310Z,21.38
2022-09-13T20:29:16.943Z,21.37
2022-09-13T20:31:44.698Z,21.21
2022-09-13T20:34:15.743Z,21.05
2022-09-13T20:36:47.029Z,21.15
2022-09-13T20:39:16.293Z,21.26
2022-09-13T20:41:45.122Z,21.26
2022-09-13T20:44:12.858Z,21.23
2022-09-13T20:46:42.637Z,21.23
2022-09-13T20:49:10.367Z,21.23
2022-09-13T20:51:39.856Z,21.28
2022-09-13T20:54:08.346Z,21.23
2022-09-13T20:56:36.769Z,21.17
2022-09-13T20:59:05.499Z,21.18
2022-09-13T21:01:34.215Z,21.11
2022-09-13T21:04:02.903Z,21.09
2022-09-13T21:06:37.418Z,20.95
2022-09-13T21:09:06.393Z,20.94
2022-09-13T21:11:35.868Z,21.00
2022-09-13T21:14:05.724Z,20.89
2022-09-13T21:16:35.212Z,20.90
2022-09-13T21:19:03.328Z,20.94
2022-09-13T21:21:34.548Z,20.82
2022-09-13T21:24:04.288Z,20.72
2022-09-13T21:26:33.982Z,20.67
2022-09-13T21:29:01.914Z,20.55
2022-09-13T21:31:31.345Z,20.60
2022-09-13T21:34:01.404Z,20.58
2022-09-13T21:36:30.339Z,20.58
2022-09-13T21:38:58.331Z,20.66
2022-09-13T21:41:27.649Z,20.56
2022-09-13T21:43:56.773Z,20.63
2022-09-13T21:46:27.452Z,20.58
2022-09-13T21:48:57.128Z,20.61
2022-09-13T21:51:26.745Z,20.63
2022-09-13T21:53:58.926Z,20.66
2022-09-13T21:56:29.259Z,20.68
2022-09-13T21:58:59.567Z,20.55
2022-09-13T22:01:31.581Z,20.34
2022-09-13T22:04:00.416Z,20.27
2022-09-13T22:06:33.532Z,20.32
2022-09-13T22:09:03.515Z,20.28
2022-09-13T22:11:33.714Z,20.33
2022-09-13T22:14:03.040Z,20.34
2022-09-13T22:16:32.510Z,20.34
2022-09-13T22:19:07.972Z,20.40
2022-09-13T22:21:38.968Z,20.38
2022-09-13T22:24:08.407Z,20.31
2022-09-13T22:26:39.432Z,20.20
2022-09-13T22:29:09.685Z,20.26
2022-09-13T22:31:39.243Z,20.32
2022-09-13T22:34:07.951Z,20.34
2022-09-13T22:36:35.850Z,20.38
2022-09-13T22:39:03.495Z,20.40
2022-09-13T22:41:32.672Z,20.25
2022-09-13T22:44:01.752Z,20.15
2022-09-13T22:46:33.393Z,20.05
2022-09-13T22:49:02.008Z,20.09
2022-09-13T22:51:30.262Z,19.93
2022-09-13T22:53:59.863Z,20.01
2022-09-13T22:56:32.008Z,20.02
2022-09-13T22:59:01.544Z,19.90
2022-09-13T23:01:31.751Z,19.92
2022-09-13T23:04:01.138Z,19.95
2022-09-13T23:06:29.892Z,19.76
2022-09-13T23:09:00.511Z,19.67
2022-09-13T23:11:30.547Z,19.77
2022-09-13T23:14:01.386Z,19.79
2022-09-13T23:16:33.248Z,19.79
2022-09-13T23:19:01.338Z,19.70
2022-09-13T23:21:31.087Z,19.70
2022-09-13T23:23:59.638Z,19.73
2022-09-13T23:26:27.558Z,19.73
2022-09-13T23:28:56.940Z,19.76
2022-09-13T23:31:26.899Z,19.53
2022-09-13T23:33:58.383Z,19.52
2022-09-13T23:36:27.934Z,19.52
2022-09-13T23:38:57.462Z,19.51
2022-09-13T23:41:26.370Z,19.54
2022-09-13T23:43:54.351Z,19.52
2022-09-13T23:46:22.532Z,19.42
2022-09-13T23:48:50.483Z,19.40
2022-09-13T23:51:23.050Z,19.46
2022-09-13T23:53:52.072Z,19.51
2022-09-13T23:56:20.694Z,19.54
2022-09-13T23:58:48.303Z,19.48
